Copenhagen, Denmark

4:01 PM CET on February 09, 2016 (GMT +0100)
Kastrup | | Change Station
CLOSE
Current Station
Airport
Location: Copenhagen,
Elevation: 16 ft
Nearby Weather Stations

Elev 16 ft 55.61 °N, 12.65 °E | Updated 11 minutes ago

Mostly Cloudy
Mostly Cloudy
43 °F
Feels Like 36 °F
N
13
Wind Variable Wind from SSW

Today
High -- | Low -- °F
--% Chance of Precip.
Yesterday
High -- | Low -- °F
Precip. -- in
Pressure 29.12 in
Visibility 6.2 miles
Clouds Few 2600 ft
Mostly Cloudy 4100 ft
Windchill 36 °F
Dew Point 36 °F
Humidity 76%
Rainfall 0.00 in
Snow Depth Not available.
7:48 AM 4:59 PM
New Moon, 1% visible
METAR EKCH 091450Z 21011KT 9999 FEW026 BKN041 06/02 Q0986 NOSIG
Pressure 29.12 in
Visibility 6.2 miles
Clouds Few 2600 ft
Mostly Cloudy 4100 ft
Windchill 36 °F
Dew Point 36 °F
Humidity 76%
Rainfall 0.00 in
Snow Depth Not available.
7:48 AM 4:59 PM
New Moon, 1% visible
METAR EKCH 091450Z 21011KT 9999 FEW026 BKN041 06/02 Q0986 NOSIG

10-Day Weather Forecast

Almanac

Astronomy

Feb. 09, 2016 Rise Set
Actual Time
Civil Twilight
Nautical Twilight
Astronomical Twilight
Moon
Length of Visible Light
Length of Day
Tomorrow will be .
, % of the Moon is Illuminated

Today's Extremes

Country Highs Country Lows

Community

WunderPhotos

Upload Photos

1,891,616 photos uploaded!

WunderBlog® & News

Nearby

Air Quality

  Air Quality AQ Index Pollutant
Not available.

Snow Depth

Station Depth Elevation

Earthquake Activity

City Distance Mag. Time & Date
Minimum magnitude displayed is 2.5.

Coastal Water Temperatures

Place Temperature

Stations

Nearby Weather Stations

Station Location Temp. Windchill Dew Point Humidity Wind Precip. Elev Updated Type